Aviation Digital Data Service (ADDS)

Output produced by METARs form (0906 UTC 18 February 2019)
found at http://www.aviationweather.gov/metar/data/
 
METAR text: ZLLL 180800Z 13003MPS 080V180 CAVOK M00/M10 Q1009 NOSIG
Conditions at: ZLLL (LANZHOU , CN) observed 0800 UTC 18 February 2019
Temperature: 0.0°C (32°F)
Dewpoint: -10.0°C (14°F) [RH = 47%]
Pressure (altimeter): 29.79 inches Hg (1009.0 mb)
Winds: from the SE (130 degrees) at 7 MPH (6 knots; 3.1 m/s)
Visibility: 6 or more miles (10+ km)
Ceiling: ceiling and visibility are OK
Clouds: unknown
Weather: no significant weather observed at this time

METAR text: ZLLL 180700Z 14002MPS 070V190 CAVOK M01/M11 Q1009 NOSIG
Conditions at: ZLLL (LANZHOU , CN) observed 0700 UTC 18 February 2019
Temperature: -1.0°C (30°F)
Dewpoint: -11.0°C (12°F) [RH = 47%]
Pressure (altimeter): 29.79 inches Hg (1009.0 mb)
Winds: from the SE (140 degrees) at 5 MPH (4 knots; 2.1 m/s)
Visibility: 6 or more miles (10+ km)
Ceiling: ceiling and visibility are OK
Clouds: unknown
Weather: no significant weather observed at this time

METAR text: ZLLL 180600Z VRB01MPS CAVOK M01/M11 Q1010 NOSIG
Conditions at: ZLLL (LANZHOU , CN) observed 0600 UTC 18 February 2019
Temperature: -1.0°C (30°F)
Dewpoint: -11.0°C (12°F) [RH = 47%]
Pressure (altimeter): 29.82 inches Hg (1010.0 mb)
Winds: variable direction winds at 2 MPH (2 knots; 1.0 m/s)
Visibility: 6 or more miles (10+ km)
Ceiling: ceiling and visibility are OK
Clouds: unknown
Weather: no significant weather observed at this time

METAR text: ZLLL 180500Z VRB02MPS CAVOK M03/M12 Q1011 NOSIG
Conditions at: ZLLL (LANZHOU , CN) observed 0500 UTC 18 February 2019
Temperature: -3.0°C (27°F)
Dewpoint: -12.0°C (10°F) [RH = 50%]
Pressure (altimeter): 29.85 inches Hg (1011.0 mb)
Winds: variable direction winds at 5 MPH (4 knots; 2.1 m/s)
Visibility: 6 or more miles (10+ km)
Ceiling: ceiling and visibility are OK
Clouds: unknown
Weather: no significant weather observed at this time

METAR text: ZLLL 180400Z 21003MPS 170V250 CAVOK M04/M11 Q1012 NOSIG
Conditions at: ZLLL (LANZHOU , CN) observed 0400 UTC 18 February 2019
Temperature: -4.0°C (25°F)
Dewpoint: -11.0°C (12°F) [RH = 58%]
Pressure (altimeter): 29.88 inches Hg (1012.0 mb)
Winds: from the SSW (210 degrees) at 7 MPH (6 knots; 3.1 m/s)
Visibility: 6 or more miles (10+ km)
Ceiling: ceiling and visibility are OK
Clouds: unknown
Weather: no significant weather observed at this time

METAR text: ZLLL 180300Z 24003MPS 210V280 CAVOK M06/M11 Q1012 NOSIG
Conditions at: ZLLL (LANZHOU , CN) observed 0300 UTC 18 February 2019
Temperature: -6.0°C (21°F)
Dewpoint: -11.0°C (12°F) [RH = 68%]
Pressure (altimeter): 29.88 inches Hg (1012.0 mb)
Winds: from the WSW (240 degrees) at 7 MPH (6 knots; 3.1 m/s)
Visibility: 6 or more miles (10+ km)
Ceiling: ceiling and visibility are OK
Clouds: unknown
Weather: no significant weather observed at this time

METAR text: ZLLL 180200Z 21002MPS 180V240 CAVOK M07/M10 Q1013 NOSIG
Conditions at: ZLLL (LANZHOU , CN) observed 0200 UTC 18 February 2019
Temperature: -7.0°C (19°F)
Dewpoint: -10.0°C (14°F) [RH = 79%]
Pressure (altimeter): 29.91 inches Hg (1013.0 mb)
Winds: from the SSW (210 degrees) at 5 MPH (4 knots; 2.1 m/s)
Visibility: 6 or more miles (10+ km)
Ceiling: ceiling and visibility are OK
Clouds: unknown
Weather: no significant weather observed at this time

METAR text: ZLLL 180100Z 02002MPS CAVOK M10/M12 Q1013 NOSIG
Conditions at: ZLLL (LANZHOU , CN) observed 0100 UTC 18 February 2019
Temperature: -10.0°C (14°F)
Dewpoint: -12.0°C (10°F) [RH = 85%]
Pressure (altimeter): 29.91 inches Hg (1013.0 mb)
Winds: from the NNE (20 degrees) at 5 MPH (4 knots; 2.1 m/s)
Visibility: 6 or more miles (10+ km)
Ceiling: ceiling and visibility are OK
Clouds: unknown
Weather: no significant weather observed at this time

METAR text: ZLLL 180000Z VRB01MPS CAVOK M11/M13 Q1012 NOSIG
Conditions at: ZLLL (LANZHOU , CN) observed 0000 UTC 18 February 2019
Temperature: -11.0°C (12°F)
Dewpoint: -13.0°C ( 9°F) [RH = 85%]
Pressure (altimeter): 29.88 inches Hg (1012.0 mb)
Winds: variable direction winds at 2 MPH (2 knots; 1.0 m/s)
Visibility: 6 or more miles (10+ km)
Ceiling: ceiling and visibility are OK
Clouds: unknown
Weather: no significant weather observed at this time

METAR text: ZLLL 172300Z 36002MPS 9999 FEW040 M13/M15 Q1012 NOSIG
Conditions at: ZLLL (LANZHOU , CN) observed 2300 UTC 17 February 2019
Temperature: -13.0°C ( 9°F)
Dewpoint: -15.0°C ( 5°F) [RH = 85%]
Pressure (altimeter): 29.88 inches Hg (1012.0 mb)
Winds: from the N (360 degrees) at 5 MPH (4 knots; 2.1 m/s)
Visibility: 6 or more miles (10+ km)
Ceiling: at least 12,000 feet AGL
Clouds: few clouds at 4000 feet AGL
Weather: no significant weather observed at this time

METAR text: ZLLL 172200Z 02002MPS 9999 FEW040 M12/M14 Q1013 NOSIG
Conditions at: ZLLL (LANZHOU , CN) observed 2200 UTC 17 February 2019
Temperature: -12.0°C (10°F)
Dewpoint: -14.0°C ( 7°F) [RH = 85%]
Pressure (altimeter): 29.91 inches Hg (1013.0 mb)
Winds: from the NNE (20 degrees) at 5 MPH (4 knots; 2.1 m/s)
Visibility: 6 or more miles (10+ km)
Ceiling: at least 12,000 feet AGL
Clouds: few clouds at 4000 feet AGL
Weather: no significant weather observed at this time

METAR text: ZLLL 172100Z VRB01MPS CAVOK M12/M13 Q1013 NOSIG
Conditions at: ZLLL (LANZHOU , CN) observed 2100 UTC 17 February 2019
Temperature: -12.0°C (10°F)
Dewpoint: -13.0°C ( 9°F) [RH = 92%]
Pressure (altimeter): 29.91 inches Hg (1013.0 mb)
Winds: variable direction winds at 2 MPH (2 knots; 1.0 m/s)
Visibility: 6 or more miles (10+ km)
Ceiling: ceiling and visibility are OK
Clouds: unknown
Weather: no significant weather observed at this time

METAR text: ZLLL 172000Z 33003MPS CAVOK M11/M13 Q1014 NOSIG
Conditions at: ZLLL (LANZHOU , CN) observed 2000 UTC 17 February 2019
Temperature: -11.0°C (12°F)
Dewpoint: -13.0°C ( 9°F) [RH = 85%]
Pressure (altimeter): 29.94 inches Hg (1014.0 mb)
Winds: from the NNW (330 degrees) at 7 MPH (6 knots; 3.1 m/s)
Visibility: 6 or more miles (10+ km)
Ceiling: ceiling and visibility are OK
Clouds: unknown
Weather: no significant weather observed at this time

METAR text: ZLLL 171900Z 34001MPS CAVOK M10/M12 Q1015 NOSIG
Conditions at: ZLLL (LANZHOU , CN) observed 1900 UTC 17 February 2019
Temperature: -10.0°C (14°F)
Dewpoint: -12.0°C (10°F) [RH = 85%]
Pressure (altimeter): 29.97 inches Hg (1015.0 mb)
Winds: from the NNW (340 degrees) at 2 MPH (2 knots; 1.0 m/s)
Visibility: 6 or more miles (10+ km)
Ceiling: ceiling and visibility are OK
Clouds: unknown
Weather: no significant weather observed at this time

METAR text: ZLLL 171800Z VRB01MPS CAVOK M10/M13 Q1015 NOSIG
Conditions at: ZLLL (LANZHOU , CN) observed 1800 UTC 17 February 2019
Temperature: -10.0°C (14°F)
Dewpoint: -13.0°C ( 9°F) [RH = 79%]
Pressure (altimeter): 29.97 inches Hg (1015.0 mb)
Winds: variable direction winds at 2 MPH (2 knots; 1.0 m/s)
Visibility: 6 or more miles (10+ km)
Ceiling: ceiling and visibility are OK
Clouds: unknown
Weather: no significant weather observed at this time

METAR text: ZLLL 171700Z 06002MPS 9999 -SN NSC M09/M12 Q1016 NOSIG
Conditions at: ZLLL (LANZHOU , CN) observed 1700 UTC 17 February 2019
Temperature: -9.0°C (16°F)
Dewpoint: -12.0°C (10°F) [RH = 79%]
Pressure (altimeter): 30.00 inches Hg (1016.0 mb)
Winds: from the ENE (60 degrees) at 5 MPH (4 knots; 2.1 m/s)
Visibility: 6 or more miles (10+ km)
Ceiling: at least 12,000 feet AGL
Clouds: sky clear below 12,000 feet AGL
Weather: -SN  (light snow)

METAR text: ZLLL 171600Z VRB01MPS 3100 -SN OVC030 M08/M12 Q1017 BECMG TL1630 2500 -SN
Conditions at: ZLLL (LANZHOU , CN) observed 1600 UTC 17 February 2019
Temperature: -8.0°C (18°F)
Dewpoint: -12.0°C (10°F) [RH = 73%]
Pressure (altimeter): 30.03 inches Hg (1017.0 mb)
Winds: variable direction winds at 2 MPH (2 knots; 1.0 m/s)
Visibility: 1.93 miles (3.11 km)
Ceiling: 3000 feet AGL
Clouds: overcast cloud deck at 3000 feet AGL
Weather: -SN  (light snow)

METAR text: ZLLL 171500Z 06002MPS CAVOK M07/M19 Q1017 NOSIG
Conditions at: ZLLL (LANZHOU , CN) observed 1500 UTC 17 February 2019
Temperature: -7.0°C (19°F)
Dewpoint: -19.0°C (-2°F) [RH = 38%]
Pressure (altimeter): 30.03 inches Hg (1017.0 mb)
Winds: from the ENE (60 degrees) at 5 MPH (4 knots; 2.1 m/s)
Visibility: 6 or more miles (10+ km)
Ceiling: ceiling and visibility are OK
Clouds: unknown
Weather: no significant weather observed at this time

METAR text: ZLLL 171400Z 12001MPS CAVOK M06/M16 Q1017 NOSIG
Conditions at: ZLLL (LANZHOU , CN) observed 1400 UTC 17 February 2019
Temperature: -6.0°C (21°F)
Dewpoint: -16.0°C ( 3°F) [RH = 45%]
Pressure (altimeter): 30.03 inches Hg (1017.0 mb)
Winds: from the ESE (120 degrees) at 2 MPH (2 knots; 1.0 m/s)
Visibility: 6 or more miles (10+ km)
Ceiling: ceiling and visibility are OK
Clouds: unknown
Weather: no significant weather observed at this time

METAR text: ZLLL 171300Z 13001MPS CAVOK M07/M16 Q1017 NOSIG
Conditions at: ZLLL (LANZHOU , CN) observed 1300 UTC 17 February 2019
Temperature: -7.0°C (19°F)
Dewpoint: -16.0°C ( 3°F) [RH = 49%]
Pressure (altimeter): 30.03 inches Hg (1017.0 mb)
Winds: from the SE (130 degrees) at 2 MPH (2 knots; 1.0 m/s)
Visibility: 6 or more miles (10+ km)
Ceiling: ceiling and visibility are OK
Clouds: unknown
Weather: no significant weather observed at this time

METAR text: ZLLL 171200Z 14002MPS CAVOK M06/M17 Q1016 NOSIG
Conditions at: ZLLL (LANZHOU , CN) observed 1200 UTC 17 February 2019
Temperature: -6.0°C (21°F)
Dewpoint: -17.0°C ( 1°F) [RH = 41%]
Pressure (altimeter): 30.00 inches Hg (1016.0 mb)
Winds: from the SE (140 degrees) at 5 MPH (4 knots; 2.1 m/s)
Visibility: 6 or more miles (10+ km)
Ceiling: ceiling and visibility are OK
Clouds: unknown
Weather: no significant weather observed at this time

METAR text: ZLLL 171100Z VRB01MPS CAVOK M05/M16 Q1015 NOSIG
Conditions at: ZLLL (LANZHOU , CN) observed 1100 UTC 17 February 2019
Temperature: -5.0°C (23°F)
Dewpoint: -16.0°C ( 3°F) [RH = 42%]
Pressure (altimeter): 29.97 inches Hg (1015.0 mb)
Winds: variable direction winds at 2 MPH (2 knots; 1.0 m/s)
Visibility: 6 or more miles (10+ km)
Ceiling: ceiling and visibility are OK
Clouds: unknown
Weather: no significant weather observed at this time

METAR text: ZLLL 171000Z 17002MPS 130V210 CAVOK M05/M16 Q1015 NOSIG
Conditions at: ZLLL (LANZHOU , CN) observed 1000 UTC 17 February 2019
Temperature: -5.0°C (23°F)
Dewpoint: -16.0°C ( 3°F) [RH = 42%]
Pressure (altimeter): 29.97 inches Hg (1015.0 mb)
Winds: from the S (170 degrees) at 5 MPH (4 knots; 2.1 m/s)
Visibility: 6 or more miles (10+ km)
Ceiling: ceiling and visibility are OK
Clouds: unknown
Weather: no significant weather observed at this time

METAR text: ZLLL 170900Z 12002MPS 060V190 CAVOK M04/M16 Q1015 NOSIG
Conditions at: ZLLL (LANZHOU , CN) observed 0900 UTC 17 February 2019
Temperature: -4.0°C (25°F)
Dewpoint: -16.0°C ( 3°F) [RH = 39%]
Pressure (altimeter): 29.97 inches Hg (1015.0 mb)
Winds: from the ESE (120 degrees) at 5 MPH (4 knots; 2.1 m/s)
Visibility: 6 or more miles (10+ km)
Ceiling: ceiling and visibility are OK
Clouds: unknown
Weather: no significant weather observed at this time

METAR text: ZLLL 170800Z VRB01MPS CAVOK M04/M16 Q1015 NOSIG
Conditions at: ZLLL (LANZHOU , CN) observed 0800 UTC 17 February 2019
Temperature: -4.0°C (25°F)
Dewpoint: -16.0°C ( 3°F) [RH = 39%]
Pressure (altimeter): 29.97 inches Hg (1015.0 mb)
Winds: variable direction winds at 2 MPH (2 knots; 1.0 m/s)
Visibility: 6 or more miles (10+ km)
Ceiling: ceiling and visibility are OK
Clouds: unknown
Weather: no significant weather observed at this time

METAR text: ZLLL 170700Z VRB01MPS CAVOK M06/M17 Q1016 NOSIG
Conditions at: ZLLL (LANZHOU , CN) observed 0700 UTC 17 February 2019
Temperature: -6.0°C (21°F)
Dewpoint: -17.0°C ( 1°F) [RH = 41%]
Pressure (altimeter): 30.00 inches Hg (1016.0 mb)
Winds: variable direction winds at 2 MPH (2 knots; 1.0 m/s)
Visibility: 6 or more miles (10+ km)
Ceiling: ceiling and visibility are OK
Clouds: unknown
Weather: no significant weather observed at this time

METAR text: ZLLL 170600Z VRB01MPS CAVOK M06/M18 Q1017 NOSIG
Conditions at: ZLLL (LANZHOU , CN) observed 0600 UTC 17 February 2019
Temperature: -6.0°C (21°F)
Dewpoint: -18.0°C (-0°F) [RH = 38%]
Pressure (altimeter): 30.03 inches Hg (1017.0 mb)
Winds: variable direction winds at 2 MPH (2 knots; 1.0 m/s)
Visibility: 6 or more miles (10+ km)
Ceiling: ceiling and visibility are OK
Clouds: unknown
Weather: no significant weather observed at this time

METAR text: ZLLL 170500Z VRB01MPS CAVOK M07/M17 Q1018 NOSIG
Conditions at: ZLLL (LANZHOU , CN) observed 0500 UTC 17 February 2019
Temperature: -7.0°C (19°F)
Dewpoint: -17.0°C ( 1°F) [RH = 45%]
Pressure (altimeter): 30.06 inches Hg (1018.0 mb)
Winds: variable direction winds at 2 MPH (2 knots; 1.0 m/s)
Visibility: 6 or more miles (10+ km)
Ceiling: ceiling and visibility are OK
Clouds: unknown
Weather: no significant weather observed at this time

METAR text: ZLLL 170400Z VRB01MPS CAVOK M08/M18 Q1019 NOSIG
Conditions at: ZLLL (LANZHOU , CN) observed 0400 UTC 17 February 2019
Temperature: -8.0°C (18°F)
Dewpoint: -18.0°C (-0°F) [RH = 44%]
Pressure (altimeter): 30.09 inches Hg (1019.0 mb)
Winds: variable direction winds at 2 MPH (2 knots; 1.0 m/s)
Visibility: 6 or more miles (10+ km)
Ceiling: ceiling and visibility are OK
Clouds: unknown
Weather: no significant weather observed at this time

METAR text: ZLLL 170300Z VRB01MPS CAVOK M08/M18 Q1020 NOSIG
Conditions at: ZLLL (LANZHOU , CN) observed 0300 UTC 17 February 2019
Temperature: -8.0°C (18°F)
Dewpoint: -18.0°C (-0°F) [RH = 44%]
Pressure (altimeter): 30.12 inches Hg (1020.0 mb)
Winds: variable direction winds at 2 MPH (2 knots; 1.0 m/s)
Visibility: 6 or more miles (10+ km)
Ceiling: ceiling and visibility are OK
Clouds: unknown
Weather: no significant weather observed at this time

METAR text: ZLLL 170200Z 02002MPS 330V040 CAVOK M10/M17 Q1020 NOSIG
Conditions at: ZLLL (LANZHOU , CN) observed 0200 UTC 17 February 2019
Temperature: -10.0°C (14°F)
Dewpoint: -17.0°C ( 1°F) [RH = 57%]
Pressure (altimeter): 30.12 inches Hg (1020.0 mb)
Winds: from the NNE (20 degrees) at 5 MPH (4 knots; 2.1 m/s)
Visibility: 6 or more miles (10+ km)
Ceiling: ceiling and visibility are OK
Clouds: unknown
Weather: no significant weather observed at this time

METAR text: ZLLL 170100Z 36002MPS CAVOK M11/M17 Q1020 NOSIG
Conditions at: ZLLL (LANZHOU , CN) observed 0100 UTC 17 February 2019
Temperature: -11.0°C (12°F)
Dewpoint: -17.0°C ( 1°F) [RH = 61%]
Pressure (altimeter): 30.12 inches Hg (1020.0 mb)
Winds: from the N (360 degrees) at 5 MPH (4 knots; 2.1 m/s)
Visibility: 6 or more miles (10+ km)
Ceiling: ceiling and visibility are OK
Clouds: unknown
Weather: no significant weather observed at this time

METAR text: ZLLL 170000Z 36002MPS CAVOK M13/M17 Q1019 NOSIG
Conditions at: ZLLL (LANZHOU , CN) observed 0000 UTC 17 February 2019
Temperature: -13.0°C ( 9°F)
Dewpoint: -17.0°C ( 1°F) [RH = 72%]
Pressure (altimeter): 30.09 inches Hg (1019.0 mb)
Winds: from the N (360 degrees) at 5 MPH (4 knots; 2.1 m/s)
Visibility: 6 or more miles (10+ km)
Ceiling: ceiling and visibility are OK
Clouds: unknown
Weather: no significant weather observed at this time

METAR text: ZLLL 162300Z 01002MPS CAVOK M13/M17 Q1019 NOSIG
Conditions at: ZLLL (LANZHOU , CN) observed 2300 UTC 16 February 2019
Temperature: -13.0°C ( 9°F)
Dewpoint: -17.0°C ( 1°F) [RH = 72%]
Pressure (altimeter): 30.09 inches Hg (1019.0 mb)
Winds: from the N (10 degrees) at 5 MPH (4 knots; 2.1 m/s)
Visibility: 6 or more miles (10+ km)
Ceiling: ceiling and visibility are OK
Clouds: unknown
Weather: no significant weather observed at this time

METAR text: ZLLL 162200Z 36002MPS 9999 SCT046 M13/M17 Q1019 NOSIG
Conditions at: ZLLL (LANZHOU , CN) observed 2200 UTC 16 February 2019
Temperature: -13.0°C ( 9°F)
Dewpoint: -17.0°C ( 1°F) [RH = 72%]
Pressure (altimeter): 30.09 inches Hg (1019.0 mb)
Winds: from the N (360 degrees) at 5 MPH (4 knots; 2.1 m/s)
Visibility: 6 or more miles (10+ km)
Ceiling: at least 12,000 feet AGL
Clouds: scattered clouds at 4600 feet AGL
Weather: no significant weather observed at this time

Forecast for: ZLLL (LANZHOU , CN)
Text: TAF ZLLL 180301Z 1806/1906 21003MPS 5000 BR NSC TX01/1808Z TNM13/23Z
Forecast period: 0600 UTC 18 February 2019 to 0600 UTC 19 February 2019
Forecast type: FROM: standard forecast or significant change
Winds: from the SSW (210 degrees) at 7 MPH (6 knots; 3.1 m/s)
Visibility: 3 miles (5 km)
Ceiling: unknown
Clouds: missing
Weather: BR  (mist)